sensor_id;sensor_type;location;lat;lon;timestamp;P1;durP1;ratioP1;P2;durP2;ratioP2
57635;SDS011;43465;50.728;4.160;2022-10-18T00:00:30;9.82;;;8.02;;
57635;SDS011;43465;50.728;4.160;2022-10-18T00:02:55;7.70;;;6.93;;
57635;SDS011;43465;50.728;4.160;2022-10-18T00:05:21;9.32;;;8.00;;
57635;SDS011;43465;50.728;4.160;2022-10-18T00:07:47;8.75;;;7.32;;
57635;SDS011;43465;50.728;4.160;2022-10-18T00:10:12;8.02;;;7.22;;
57635;SDS011;43465;50.728;4.160;2022-10-18T00:12:38;10.60;;;7.32;;
57635;SDS011;43465;50.728;4.160;2022-10-18T00:15:04;8.98;;;6.28;;
57635;SDS011;43465;50.728;4.160;2022-10-18T00:17:33;9.10;;;6.55;;
57635;SDS011;43465;50.728;4.160;2022-10-18T00:19:59;7.47;;;6.65;;
57635;SDS011;43465;50.728;4.160;2022-10-18T00:22:25;11.68;;;6.55;;
57635;SDS011;43465;50.728;4.160;2022-10-18T00:24:50;9.40;;;7.28;;
57635;SDS011;43465;50.728;4.160;2022-10-18T00:27:16;8.15;;;6.93;;
57635;SDS011;43465;50.728;4.160;2022-10-18T00:29:42;9.48;;;7.35;;
57635;SDS011;43465;50.728;4.160;2022-10-18T00:32:08;9.85;;;7.05;;
57635;SDS011;43465;50.728;4.160;2022-10-18T00:34:36;8.82;;;7.35;;
57635;SDS011;43465;50.728;4.160;2022-10-18T00:37:03;12.00;;;8.27;;
57635;SDS011;43465;50.728;4.160;2022-10-18T00:39:28;8.23;;;7.20;;
57635;SDS011;43465;50.728;4.160;2022-10-18T00:41:54;13.40;;;7.97;;
57635;SDS011;43465;50.728;4.160;2022-10-18T00:46:48;12.85;;;8.30;;
57635;SDS011;43465;50.728;4.160;2022-10-18T00:49:19;11.30;;;7.95;;
57635;SDS011;43465;50.728;4.160;2022-10-18T00:52:02;11.70;;;8.00;;
57635;SDS011;43465;50.728;4.160;2022-10-18T00:56:58;13.98;;;8.88;;
57635;SDS011;43465;50.728;4.160;2022-10-18T00:59:25;13.38;;;8.95;;
57635;SDS011;43465;50.728;4.160;2022-10-18T01:01:51;9.82;;;8.70;;
57635;SDS011;43465;50.728;4.160;2022-10-18T01:04:17;12.45;;;9.00;;
57635;SDS011;43465;50.728;4.160;2022-10-18T01:18:23;8.15;;;7.35;;
57635;SDS011;43465;50.728;4.160;2022-10-18T01:21:00;9.20;;;8.40;;
57635;SDS011;43465;50.728;4.160;2022-10-18T01:32:17;8.98;;;8.07;;
57635;SDS011;43465;50.728;4.160;2022-10-18T01:34:47;10.10;;;8.65;;
57635;SDS011;43465;50.728;4.160;2022-10-18T01:37:16;10.25;;;8.45;;
57635;SDS011;43465;50.728;4.160;2022-10-18T01:39:45;9.82;;;7.97;;
57635;SDS011;43465;50.728;4.160;2022-10-18T01:42:13;9.82;;;8.70;;
57635;SDS011;43465;50.728;4.160;2022-10-18T01:44:43;9.73;;;8.73;;
57635;SDS011;43465;50.728;4.160;2022-10-18T01:47:11;10.45;;;9.18;;
57635;SDS011;43465;50.728;4.160;2022-10-18T01:49:38;14.20;;;9.75;;
57635;SDS011;43465;50.728;4.160;2022-10-18T01:52:04;10.65;;;9.55;;
57635;SDS011;43465;50.728;4.160;2022-10-18T01:54:32;10.05;;;8.88;;
57635;SDS011;43465;50.728;4.160;2022-10-18T01:57:07;10.27;;;9.27;;
57635;SDS011;43465;50.728;4.160;2022-10-18T02:08:07;11.05;;;9.00;;
57635;SDS011;43465;50.728;4.160;2022-10-18T02:10:59;13.70;;;8.75;;
57635;SDS011;43465;50.728;4.160;2022-10-18T02:13:30;12.93;;;8.95;;
57635;SDS011;43465;50.728;4.160;2022-10-18T02:16:00;12.45;;;8.90;;
57635;SDS011;43465;50.728;4.160;2022-10-18T02:18:39;11.00;;;8.63;;
57635;SDS011;43465;50.728;4.160;2022-10-18T02:21:09;12.73;;;9.65;;
57635;SDS011;43465;50.728;4.160;2022-10-18T02:23:37;11.70;;;9.23;;
57635;SDS011;43465;50.728;4.160;2022-10-18T02:26:03;11.30;;;9.57;;
57635;SDS011;43465;50.728;4.160;2022-10-18T02:28:30;10.63;;;9.63;;
57635;SDS011;43465;50.728;4.160;2022-10-18T02:31:09;12.45;;;9.20;;
57635;SDS011;43465;50.728;4.160;2022-10-18T02:33:43;11.45;;;8.50;;
57635;SDS011;43465;50.728;4.160;2022-10-18T02:36:50;12.35;;;8.35;;
57635;SDS011;43465;50.728;4.160;2022-10-18T02:39:26;11.68;;;9.18;;
57635;SDS011;43465;50.728;4.160;2022-10-18T02:41:58;13.07;;;8.88;;
57635;SDS011;43465;50.728;4.160;2022-10-18T02:44:24;10.52;;;9.43;;
57635;SDS011;43465;50.728;4.160;2022-10-18T02:46:50;9.75;;;8.55;;
57635;SDS011;43465;50.728;4.160;2022-10-18T02:49:16;22.42;;;8.93;;
57635;SDS011;43465;50.728;4.160;2022-10-18T02:51:42;11.18;;;9.18;;
57635;SDS011;43465;50.728;4.160;2022-10-18T02:54:08;10.00;;;9.05;;
57635;SDS011;43465;50.728;4.160;2022-10-18T02:56:34;10.20;;;9.10;;
57635;SDS011;43465;50.728;4.160;2022-10-18T02:59:00;10.88;;;9.75;;
57635;SDS011;43465;50.728;4.160;2022-10-18T03:01:26;11.02;;;8.65;;
57635;SDS011;43465;50.728;4.160;2022-10-18T03:03:51;11.85;;;9.65;;
57635;SDS011;43465;50.728;4.160;2022-10-18T03:06:17;13.40;;;9.25;;
57635;SDS011;43465;50.728;4.160;2022-10-18T03:08:43;12.35;;;9.52;;
57635;SDS011;43465;50.728;4.160;2022-10-18T03:11:08;9.68;;;8.38;;
57635;SDS011;43465;50.728;4.160;2022-10-18T03:13:34;11.27;;;9.77;;
57635;SDS011;43465;50.728;4.160;2022-10-18T03:16:00;11.52;;;9.38;;
57635;SDS011;43465;50.728;4.160;2022-10-18T03:18:25;11.88;;;10.50;;
57635;SDS011;43465;50.728;4.160;2022-10-18T03:20:51;11.95;;;10.30;;
57635;SDS011;43465;50.728;4.160;2022-10-18T03:23:17;10.60;;;9.27;;
57635;SDS011;43465;50.728;4.160;2022-10-18T03:25:43;11.40;;;10.20;;
57635;SDS011;43465;50.728;4.160;2022-10-18T03:28:09;14.38;;;11.23;;
57635;SDS011;43465;50.728;4.160;2022-10-18T03:30:34;12.70;;;10.80;;
57635;SDS011;43465;50.728;4.160;2022-10-18T03:33:00;13.63;;;12.15;;
57635;SDS011;43465;50.728;4.160;2022-10-18T03:35:26;13.07;;;11.32;;
57635;SDS011;43465;50.728;4.160;2022-10-18T03:37:51;13.48;;;11.30;;
57635;SDS011;43465;50.728;4.160;2022-10-18T03:40:17;15.07;;;10.55;;
57635;SDS011;43465;50.728;4.160;2022-10-18T03:42:42;12.00;;;10.50;;
57635;SDS011;43465;50.728;4.160;2022-10-18T03:45:08;13.43;;;12.02;;
57635;SDS011;43465;50.728;4.160;2022-10-18T03:47:34;16.27;;;12.07;;
57635;SDS011;43465;50.728;4.160;2022-10-18T03:49:59;13.65;;;12.18;;
57635;SDS011;43465;50.728;4.160;2022-10-18T03:52:25;13.55;;;12.15;;
57635;SDS011;43465;50.728;4.160;2022-10-18T03:54:51;16.95;;;13.23;;
57635;SDS011;43465;50.728;4.160;2022-10-18T03:57:16;12.38;;;11.15;;
57635;SDS011;43465;50.728;4.160;2022-10-18T03:59:42;15.65;;;13.80;;
57635;SDS011;43465;50.728;4.160;2022-10-18T04:02:08;13.88;;;12.48;;
57635;SDS011;43465;50.728;4.160;2022-10-18T04:04:33;18.20;;;12.45;;
57635;SDS011;43465;50.728;4.160;2022-10-18T04:06:59;13.63;;;12.23;;
57635;SDS011;43465;50.728;4.160;2022-10-18T04:09:25;14.40;;;12.30;;
57635;SDS011;43465;50.728;4.160;2022-10-18T04:11:50;17.80;;;12.85;;
57635;SDS011;43465;50.728;4.160;2022-10-18T04:14:16;13.68;;;11.77;;
57635;SDS011;43465;50.728;4.160;2022-10-18T04:16:45;16.40;;;12.95;;
57635;SDS011;43465;50.728;4.160;2022-10-18T04:19:11;15.70;;;13.70;;
57635;SDS011;43465;50.728;4.160;2022-10-18T04:21:36;17.02;;;13.50;;
57635;SDS011;43465;50.728;4.160;2022-10-18T04:24:02;16.70;;;13.82;;
57635;SDS011;43465;50.728;4.160;2022-10-18T04:26:28;17.23;;;14.20;;
57635;SDS011;43465;50.728;4.160;2022-10-18T04:28:53;16.55;;;13.90;;
57635;SDS011;43465;50.728;4.160;2022-10-18T04:31:19;16.15;;;14.27;;
57635;SDS011;43465;50.728;4.160;2022-10-18T04:33:45;16.33;;;14.27;;
57635;SDS011;43465;50.728;4.160;2022-10-18T04:36:10;22.85;;;13.32;;
57635;SDS011;43465;50.728;4.160;2022-10-18T04:38:36;29.60;;;12.93;;
57635;SDS011;43465;50.728;4.160;2022-10-18T04:41:02;18.95;;;12.43;;
57635;SDS011;43465;50.728;4.160;2022-10-18T04:43:27;18.88;;;15.18;;
57635;SDS011;43465;50.728;4.160;2022-10-18T04:45:53;20.77;;;16.25;;
57635;SDS011;43465;50.728;4.160;2022-10-18T04:48:19;23.42;;;18.02;;
57635;SDS011;43465;50.728;4.160;2022-10-18T04:50:48;22.88;;;17.52;;
57635;SDS011;43465;50.728;4.160;2022-10-18T04:53:15;24.55;;;15.93;;
57635;SDS011;43465;50.728;4.160;2022-10-18T04:55:42;19.63;;;15.85;;
57635;SDS011;43465;50.728;4.160;2022-10-18T05:00:40;20.52;;;15.63;;
57635;SDS011;43465;50.728;4.160;2022-10-18T05:03:07;17.45;;;14.80;;
57635;SDS011;43465;50.728;4.160;2022-10-18T05:05:33;22.77;;;15.43;;
57635;SDS011;43465;50.728;4.160;2022-10-18T05:07:59;20.42;;;14.93;;
57635;SDS011;43465;50.728;4.160;2022-10-18T05:10:25;22.73;;;16.13;;
57635;SDS011;43465;50.728;4.160;2022-10-18T05:12:50;19.35;;;15.52;;
57635;SDS011;43465;50.728;4.160;2022-10-18T05:15:19;19.25;;;15.70;;
57635;SDS011;43465;50.728;4.160;2022-10-18T05:17:44;18.90;;;15.38;;
57635;SDS011;43465;50.728;4.160;2022-10-18T05:20:10;21.50;;;15.82;;
57635;SDS011;43465;50.728;4.160;2022-10-18T05:22:36;21.85;;;16.67;;
57635;SDS011;43465;50.728;4.160;2022-10-18T05:25:01;18.50;;;15.82;;
57635;SDS011;43465;50.728;4.160;2022-10-18T05:27:27;22.70;;;18.00;;
57635;SDS011;43465;50.728;4.160;2022-10-18T05:29:53;21.98;;;18.08;;
57635;SDS011;43465;50.728;4.160;2022-10-18T05:32:19;20.38;;;16.45;;
57635;SDS011;43465;50.728;4.160;2022-10-18T05:34:44;19.48;;;17.40;;
57635;SDS011;43465;50.728;4.160;2022-10-18T05:37:10;23.55;;;17.02;;
57635;SDS011;43465;50.728;4.160;2022-10-18T05:39:36;21.33;;;17.02;;
57635;SDS011;43465;50.728;4.160;2022-10-18T05:42:02;23.60;;;17.48;;
57635;SDS011;43465;50.728;4.160;2022-10-18T05:44:28;19.90;;;16.63;;
57635;SDS011;43465;50.728;4.160;2022-10-18T05:46:54;26.17;;;18.92;;
57635;SDS011;43465;50.728;4.160;2022-10-18T05:49:19;21.40;;;18.15;;
57635;SDS011;43465;50.728;4.160;2022-10-18T05:51:45;23.38;;;18.95;;
57635;SDS011;43465;50.728;4.160;2022-10-18T05:54:11;23.05;;;17.05;;
57635;SDS011;43465;50.728;4.160;2022-10-18T05:56:37;20.60;;;18.08;;
57635;SDS011;43465;50.728;4.160;2022-10-18T05:59:03;21.23;;;18.27;;
57635;SDS011;43465;50.728;4.160;2022-10-18T06:01:34;23.17;;;17.55;;
57635;SDS011;43465;50.728;4.160;2022-10-18T06:04:04;22.45;;;17.63;;
57635;SDS011;43465;50.728;4.160;2022-10-18T06:06:30;49.90;;;15.55;;
57635;SDS011;43465;50.728;4.160;2022-10-18T06:08:56;118.82;;;14.93;;
57635;SDS011;43465;50.728;4.160;2022-10-18T06:11:22;44.55;;;13.57;;
57635;SDS011;43465;50.728;4.160;2022-10-18T06:13:49;49.88;;;12.30;;
57635;SDS011;43465;50.728;4.160;2022-10-18T06:16:17;15.95;;;12.48;;
57635;SDS011;43465;50.728;4.160;2022-10-18T06:18:48;44.40;;;10.93;;
57635;SDS011;43465;50.728;4.160;2022-10-18T06:21:15;103.53;;;11.05;;
57635;SDS011;43465;50.728;4.160;2022-10-18T06:23:41;127.22;;;11.15;;
57635;SDS011;43465;50.728;4.160;2022-10-18T06:26:07;82.75;;;12.02;;
57635;SDS011;43465;50.728;4.160;2022-10-18T06:28:35;61.17;;;11.02;;
57635;SDS011;43465;50.728;4.160;2022-10-18T06:31:04;118.38;;;14.02;;
57635;SDS011;43465;50.728;4.160;2022-10-18T06:33:30;134.63;;;15.70;;
57635;SDS011;43465;50.728;4.160;2022-10-18T06:36:01;121.72;;;13.80;;
57635;SDS011;43465;50.728;4.160;2022-10-18T06:38:29;105.53;;;13.60;;
57635;SDS011;43465;50.728;4.160;2022-10-18T06:40:55;72.55;;;13.27;;
57635;SDS011;43465;50.728;4.160;2022-10-18T06:43:21;52.00;;;12.18;;
57635;SDS011;43465;50.728;4.160;2022-10-18T06:45:48;42.15;;;11.80;;
57635;SDS011;43465;50.728;4.160;2022-10-18T06:48:15;77.70;;;13.05;;
57635;SDS011;43465;50.728;4.160;2022-10-18T06:50:41;239.32;;;17.95;;
57635;SDS011;43465;50.728;4.160;2022-10-18T06:53:14;109.07;;;16.35;;
57635;SDS011;43465;50.728;4.160;2022-10-18T06:55:40;202.02;;;15.65;;
57635;SDS011;43465;50.728;4.160;2022-10-18T06:58:05;136.95;;;16.50;;
57635;SDS011;43465;50.728;4.160;2022-10-18T07:00:31;27.25;;;15.60;;
57635;SDS011;43465;50.728;4.160;2022-10-18T07:02:56;158.40;;;17.30;;
57635;SDS011;43465;50.728;4.160;2022-10-18T07:05:22;97.55;;;14.18;;
57635;SDS011;43465;50.728;4.160;2022-10-18T07:07:48;86.78;;;13.13;;
57635;SDS011;43465;50.728;4.160;2022-10-18T07:10:13;103.07;;;16.15;;
57635;SDS011;43465;50.728;4.160;2022-10-18T07:12:39;34.08;;;18.45;;
57635;SDS011;43465;50.728;4.160;2022-10-18T07:15:05;117.38;;;20.38;;
57635;SDS011;43465;50.728;4.160;2022-10-18T07:17:30;102.20;;;17.90;;
57635;SDS011;43465;50.728;4.160;2022-10-18T07:19:56;33.47;;;18.17;;
57635;SDS011;43465;50.728;4.160;2022-10-18T07:22:22;241.05;;;20.60;;
57635;SDS011;43465;50.728;4.160;2022-10-18T07:24:47;251.63;;;20.95;;
57635;SDS011;43465;50.728;4.160;2022-10-18T07:27:13;148.85;;;17.27;;
57635;SDS011;43465;50.728;4.160;2022-10-18T07:29:38;160.90;;;17.75;;
57635;SDS011;43465;50.728;4.160;2022-10-18T07:32:05;36.13;;;19.65;;
57635;SDS011;43465;50.728;4.160;2022-10-18T07:34:30;36.33;;;22.63;;
57635;SDS011;43465;50.728;4.160;2022-10-18T07:36:56;32.13;;;21.25;;
57635;SDS011;43465;50.728;4.160;2022-10-18T07:39:21;38.53;;;24.35;;
57635;SDS011;43465;50.728;4.160;2022-10-18T07:41:47;40.33;;;26.67;;
57635;SDS011;43465;50.728;4.160;2022-10-18T07:44:13;37.08;;;23.83;;
57635;SDS011;43465;50.728;4.160;2022-10-18T07:46:38;25.33;;;19.48;;
57635;SDS011;43465;50.728;4.160;2022-10-18T07:49:04;23.88;;;18.63;;
57635;SDS011;43465;50.728;4.160;2022-10-18T07:51:30;29.75;;;16.27;;
57635;SDS011;43465;50.728;4.160;2022-10-18T07:53:57;19.52;;;15.50;;
57635;SDS011;43465;50.728;4.160;2022-10-18T07:56:23;16.98;;;13.57;;
57635;SDS011;43465;50.728;4.160;2022-10-18T07:58:50;15.13;;;12.70;;
57635;SDS011;43465;50.728;4.160;2022-10-18T08:01:17;23.63;;;10.60;;
57635;SDS011;43465;50.728;4.160;2022-10-18T08:03:44;11.43;;;10.18;;
57635;SDS011;43465;50.728;4.160;2022-10-18T08:06:11;11.30;;;10.10;;
57635;SDS011;43465;50.728;4.160;2022-10-18T08:08:39;10.32;;;9.40;;
57635;SDS011;43465;50.728;4.160;2022-10-18T08:11:09;12.52;;;9.80;;
57635;SDS011;43465;50.728;4.160;2022-10-18T08:13:46;10.23;;;9.35;;
57635;SDS011;43465;50.728;4.160;2022-10-18T08:16:13;10.80;;;9.70;;
57635;SDS011;43465;50.728;4.160;2022-10-18T08:18:40;10.57;;;8.85;;
57635;SDS011;43465;50.728;4.160;2022-10-18T08:21:07;31.73;;;8.95;;
57635;SDS011;43465;50.728;4.160;2022-10-18T08:23:33;27.10;;;8.55;;
57635;SDS011;43465;50.728;4.160;2022-10-18T08:26:01;11.90;;;8.75;;
57635;SDS011;43465;50.728;4.160;2022-10-18T08:28:30;10.43;;;9.45;;
57635;SDS011;43465;50.728;4.160;2022-10-18T08:30:56;38.83;;;11.02;;
57635;SDS011;43465;50.728;4.160;2022-10-18T08:33:26;39.63;;;13.05;;
57635;SDS011;43465;50.728;4.160;2022-10-18T08:35:58;31.00;;;15.05;;
57635;SDS011;43465;50.728;4.160;2022-10-18T08:38:27;77.28;;;19.05;;
57635;SDS011;43465;50.728;4.160;2022-10-18T08:40:55;36.20;;;20.67;;
57635;SDS011;43465;50.728;4.160;2022-10-18T08:45:58;28.83;;;23.00;;
57635;SDS011;43465;50.728;4.160;2022-10-18T08:51:01;29.48;;;21.73;;
57635;SDS011;43465;50.728;4.160;2022-10-18T08:53:35;24.10;;;21.02;;
57635;SDS011;43465;50.728;4.160;2022-10-18T08:56:13;28.83;;;21.67;;
57635;SDS011;43465;50.728;4.160;2022-10-18T08:58:40;30.00;;;20.95;;
57635;SDS011;43465;50.728;4.160;2022-10-18T09:04:05;26.00;;;21.30;;
57635;SDS011;43465;50.728;4.160;2022-10-18T09:09:22;30.98;;;19.85;;
57635;SDS011;43465;50.728;4.160;2022-10-18T09:17:56;27.27;;;17.00;;
57635;SDS011;43465;50.728;4.160;2022-10-18T09:26:07;25.65;;;15.90;;
57635;SDS011;43465;50.728;4.160;2022-10-18T09:36:50;21.80;;;13.93;;
57635;SDS011;43465;50.728;4.160;2022-10-18T09:39:24;23.35;;;15.52;;
57635;SDS011;43465;50.728;4.160;2022-10-18T09:44:24;24.10;;;15.00;;
57635;SDS011;43465;50.728;4.160;2022-10-18T09:47:46;19.83;;;14.07;;
57635;SDS011;43465;50.728;4.160;2022-10-18T09:49:56;20.77;;;14.15;;
57635;SDS011;43465;50.728;4.160;2022-10-18T09:52:30;32.67;;;19.40;;
57635;SDS011;43465;50.728;4.160;2022-10-18T09:55:07;23.70;;;17.02;;
57635;SDS011;43465;50.728;4.160;2022-10-18T09:57:42;21.10;;;16.98;;
57635;SDS011;43465;50.728;4.160;2022-10-18T10:00:23;27.25;;;15.85;;
57635;SDS011;43465;50.728;4.160;2022-10-18T10:02:52;26.13;;;14.80;;
57635;SDS011;43465;50.728;4.160;2022-10-18T10:05:17;22.38;;;13.80;;
57635;SDS011;43465;50.728;4.160;2022-10-18T10:07:44;19.98;;;11.93;;
57635;SDS011;43465;50.728;4.160;2022-10-18T10:10:24;28.65;;;12.75;;
57635;SDS011;43465;50.728;4.160;2022-10-18T10:13:01;18.55;;;12.45;;
57635;SDS011;43465;50.728;4.160;2022-10-18T10:15:31;19.40;;;12.48;;
57635;SDS011;43465;50.728;4.160;2022-10-18T10:18:01;18.63;;;10.75;;
57635;SDS011;43465;50.728;4.160;2022-10-18T10:20:50;21.80;;;11.90;;
57635;SDS011;43465;50.728;4.160;2022-10-18T10:25:54;17.23;;;11.00;;
57635;SDS011;43465;50.728;4.160;2022-10-18T10:28:24;21.77;;;10.68;;
57635;SDS011;43465;50.728;4.160;2022-10-18T10:30:52;21.00;;;10.90;;
57635;SDS011;43465;50.728;4.160;2022-10-18T10:36:01;17.73;;;9.60;;
57635;SDS011;43465;50.728;4.160;2022-10-18T10:38:31;20.02;;;11.05;;
57635;SDS011;43465;50.728;4.160;2022-10-18T10:40:57;16.45;;;9.90;;
57635;SDS011;43465;50.728;4.160;2022-10-18T10:43:41;18.60;;;9.63;;
57635;SDS011;43465;50.728;4.160;2022-10-18T10:46:13;21.23;;;9.60;;
57635;SDS011;43465;50.728;4.160;2022-10-18T10:48:48;19.15;;;9.38;;
57635;SDS011;43465;50.728;4.160;2022-10-18T10:56:49;14.52;;;7.97;;
57635;SDS011;43465;50.728;4.160;2022-10-18T10:59:52;16.20;;;8.23;;
57635;SDS011;43465;50.728;4.160;2022-10-18T11:02:28;18.92;;;8.68;;
57635;SDS011;43465;50.728;4.160;2022-10-18T11:04:54;21.33;;;8.95;;
57635;SDS011;43465;50.728;4.160;2022-10-18T11:07:39;18.05;;;9.13;;
57635;SDS011;43465;50.728;4.160;2022-10-18T11:15:48;20.92;;;8.77;;
57635;SDS011;43465;50.728;4.160;2022-10-18T11:18:29;19.10;;;7.95;;
57635;SDS011;43465;50.728;4.160;2022-10-18T11:23:32;20.92;;;8.05;;
57635;SDS011;43465;50.728;4.160;2022-10-18T11:36:15;20.10;;;8.73;;
57635;SDS011;43465;50.728;4.160;2022-10-18T11:43:59;17.15;;;6.47;;
57635;SDS011;43465;50.728;4.160;2022-10-18T11:46:36;16.75;;;5.80;;
57635;SDS011;43465;50.728;4.160;2022-10-18T12:00:38;10.80;;;3.38;;
57635;SDS011;43465;50.728;4.160;2022-10-18T12:05:53;16.40;;;4.13;;
57635;SDS011;43465;50.728;4.160;2022-10-18T12:10:51;13.80;;;3.95;;
57635;SDS011;43465;50.728;4.160;2022-10-18T12:13:32;13.43;;;4.13;;
57635;SDS011;43465;50.728;4.160;2022-10-18T12:16:03;12.32;;;3.63;;
57635;SDS011;43465;50.728;4.160;2022-10-18T12:18:30;11.77;;;3.65;;
57635;SDS011;43465;50.728;4.160;2022-10-18T12:20:59;13.02;;;3.55;;
57635;SDS011;43465;50.728;4.160;2022-10-18T12:25:55;13.77;;;3.95;;
57635;SDS011;43465;50.728;4.160;2022-10-18T12:29:29;9.75;;;3.50;;
57635;SDS011;43465;50.728;4.160;2022-10-18T12:39:44;13.32;;;3.85;;
57635;SDS011;43465;50.728;4.160;2022-10-18T12:42:19;11.20;;;3.50;;
57635;SDS011;43465;50.728;4.160;2022-10-18T12:44:48;11.48;;;3.75;;
57635;SDS011;43465;50.728;4.160;2022-10-18T12:47:24;16.08;;;4.10;;
57635;SDS011;43465;50.728;4.160;2022-10-18T12:50:03;13.95;;;3.78;;
57635;SDS011;43465;50.728;4.160;2022-10-18T12:52:31;14.25;;;3.67;;
57635;SDS011;43465;50.728;4.160;2022-10-18T13:13:33;8.32;;;2.33;;
57635;SDS011;43465;50.728;4.160;2022-10-18T13:18:54;6.80;;;2.45;;
57635;SDS011;43465;50.728;4.160;2022-10-18T14:03:03;11.80;;;2.67;;
57635;SDS011;43465;50.728;4.160;2022-10-18T14:13:37;13.98;;;2.92;;
57635;SDS011;43465;50.728;4.160;2022-10-18T14:16:22;16.15;;;2.70;;
57635;SDS011;43465;50.728;4.160;2022-10-18T14:19:16;14.57;;;2.95;;
57635;SDS011;43465;50.728;4.160;2022-10-18T14:22:14;12.90;;;3.13;;
57635;SDS011;43465;50.728;4.160;2022-10-18T14:24:43;10.57;;;2.58;;
57635;SDS011;43465;50.728;4.160;2022-10-18T14:27:19;9.48;;;2.55;;
57635;SDS011;43465;50.728;4.160;2022-10-18T14:29:47;14.57;;;2.78;;
57635;SDS011;43465;50.728;4.160;2022-10-18T14:32:20;12.77;;;2.40;;
57635;SDS011;43465;50.728;4.160;2022-10-18T14:34:48;14.15;;;2.88;;
57635;SDS011;43465;50.728;4.160;2022-10-18T14:37:29;14.32;;;2.63;;
57635;SDS011;43465;50.728;4.160;2022-10-18T14:39:58;9.63;;;2.30;;
57635;SDS011;43465;50.728;4.160;2022-10-18T14:42:24;10.45;;;2.85;;
57635;SDS011;43465;50.728;4.160;2022-10-18T14:44:51;13.52;;;2.20;;
57635;SDS011;43465;50.728;4.160;2022-10-18T14:47:24;9.25;;;2.20;;
57635;SDS011;43465;50.728;4.160;2022-10-18T14:49:51;11.90;;;2.50;;
57635;SDS011;43465;50.728;4.160;2022-10-18T14:52:25;11.18;;;2.30;;
57635;SDS011;43465;50.728;4.160;2022-10-18T14:54:54;9.93;;;3.00;;
57635;SDS011;43465;50.728;4.160;2022-10-18T14:57:21;17.27;;;2.72;;
57635;SDS011;43465;50.728;4.160;2022-10-18T15:00:06;10.25;;;2.33;;
57635;SDS011;43465;50.728;4.160;2022-10-18T15:02:36;11.32;;;2.58;;
57635;SDS011;43465;50.728;4.160;2022-10-18T15:07:32;11.23;;;2.38;;
57635;SDS011;43465;50.728;4.160;2022-10-18T15:10:00;10.77;;;2.50;;
57635;SDS011;43465;50.728;4.160;2022-10-18T15:12:28;7.55;;;1.90;;
57635;SDS011;43465;50.728;4.160;2022-10-18T15:14:54;11.10;;;2.45;;
57635;SDS011;43465;50.728;4.160;2022-10-18T15:17:25;8.15;;;2.15;;
57635;SDS011;43465;50.728;4.160;2022-10-18T15:20:03;13.63;;;2.28;;
57635;SDS011;43465;50.728;4.160;2022-10-18T15:25:45;12.40;;;2.30;;
57635;SDS011;43465;50.728;4.160;2022-10-18T15:28:31;11.05;;;2.33;;
57635;SDS011;43465;50.728;4.160;2022-10-18T15:31:00;13.73;;;2.33;;
57635;SDS011;43465;50.728;4.160;2022-10-18T15:33:27;11.98;;;2.58;;
57635;SDS011;43465;50.728;4.160;2022-10-18T15:36:06;11.27;;;2.28;;
57635;SDS011;43465;50.728;4.160;2022-10-18T15:38:34;11.18;;;2.30;;
57635;SDS011;43465;50.728;4.160;2022-10-18T15:41:01;15.32;;;2.63;;
57635;SDS011;43465;50.728;4.160;2022-10-18T15:43:47;13.63;;;2.55;;
57635;SDS011;43465;50.728;4.160;2022-10-18T15:46:30;11.27;;;2.45;;
57635;SDS011;43465;50.728;4.160;2022-10-18T15:48:57;11.25;;;2.25;;
57635;SDS011;43465;50.728;4.160;2022-10-18T15:54:28;11.57;;;2.60;;
57635;SDS011;43465;50.728;4.160;2022-10-18T15:56:54;9.93;;;2.38;;
57635;SDS011;43465;50.728;4.160;2022-10-18T16:01:48;10.43;;;2.47;;
57635;SDS011;43465;50.728;4.160;2022-10-18T16:04:27;13.25;;;2.35;;
57635;SDS011;43465;50.728;4.160;2022-10-18T16:06:55;15.57;;;2.47;;
57635;SDS011;43465;50.728;4.160;2022-10-18T16:09:22;16.67;;;2.78;;
57635;SDS011;43465;50.728;4.160;2022-10-18T16:11:50;9.57;;;2.55;;
57635;SDS011;43465;50.728;4.160;2022-10-18T16:14:19;9.98;;;2.60;;
57635;SDS011;43465;50.728;4.160;2022-10-18T16:16:45;8.73;;;2.35;;
57635;SDS011;43465;50.728;4.160;2022-10-18T16:19:15;12.13;;;2.30;;
57635;SDS011;43465;50.728;4.160;2022-10-18T16:21:48;8.77;;;2.50;;
57635;SDS011;43465;50.728;4.160;2022-10-18T16:24:15;11.77;;;2.70;;
57635;SDS011;43465;50.728;4.160;2022-10-18T16:26:41;13.43;;;2.53;;
57635;SDS011;43465;50.728;4.160;2022-10-18T16:29:14;11.40;;;2.17;;
57635;SDS011;43465;50.728;4.160;2022-10-18T16:31:43;8.95;;;2.60;;
57635;SDS011;43465;50.728;4.160;2022-10-18T16:34:10;12.30;;;2.50;;
57635;SDS011;43465;50.728;4.160;2022-10-18T16:36:38;8.82;;;2.80;;
57635;SDS011;43465;50.728;4.160;2022-10-18T16:39:06;10.82;;;2.35;;
57635;SDS011;43465;50.728;4.160;2022-10-18T16:41:37;11.57;;;2.40;;
57635;SDS011;43465;50.728;4.160;2022-10-18T16:44:03;12.48;;;2.60;;
57635;SDS011;43465;50.728;4.160;2022-10-18T16:46:30;14.07;;;2.95;;
57635;SDS011;43465;50.728;4.160;2022-10-18T16:48:57;11.40;;;2.60;;
57635;SDS011;43465;50.728;4.160;2022-10-18T16:51:23;11.75;;;2.58;;
57635;SDS011;43465;50.728;4.160;2022-10-18T16:53:49;8.85;;;2.67;;
57635;SDS011;43465;50.728;4.160;2022-10-18T16:56:18;8.82;;;2.15;;
57635;SDS011;43465;50.728;4.160;2022-10-18T16:58:46;9.40;;;2.58;;
57635;SDS011;43465;50.728;4.160;2022-10-18T17:01:13;10.93;;;2.50;;
57635;SDS011;43465;50.728;4.160;2022-10-18T17:03:40;12.95;;;2.65;;
57635;SDS011;43465;50.728;4.160;2022-10-18T17:06:10;11.27;;;3.00;;
57635;SDS011;43465;50.728;4.160;2022-10-18T17:08:39;12.43;;;2.70;;
57635;SDS011;43465;50.728;4.160;2022-10-18T17:11:05;11.93;;;3.05;;
57635;SDS011;43465;50.728;4.160;2022-10-18T17:13:30;8.45;;;2.42;;
57635;SDS011;43465;50.728;4.160;2022-10-18T17:15:56;7.68;;;2.47;;
57635;SDS011;43465;50.728;4.160;2022-10-18T17:18:24;9.75;;;2.40;;
57635;SDS011;43465;50.728;4.160;2022-10-18T17:20:51;15.88;;;2.88;;
57635;SDS011;43465;50.728;4.160;2022-10-18T17:23:17;9.63;;;2.33;;
57635;SDS011;43465;50.728;4.160;2022-10-18T17:25:43;10.70;;;2.58;;
57635;SDS011;43465;50.728;4.160;2022-10-18T17:28:14;11.60;;;2.78;;
57635;SDS011;43465;50.728;4.160;2022-10-18T17:30:41;16.17;;;2.92;;
57635;SDS011;43465;50.728;4.160;2022-10-18T17:33:07;17.75;;;2.70;;
57635;SDS011;43465;50.728;4.160;2022-10-18T17:35:32;11.85;;;3.17;;
57635;SDS011;43465;50.728;4.160;2022-10-18T17:37:58;15.45;;;3.17;;
57635;SDS011;43465;50.728;4.160;2022-10-18T17:40:24;16.17;;;3.30;;
57635;SDS011;43465;50.728;4.160;2022-10-18T17:42:50;14.93;;;3.00;;
57635;SDS011;43465;50.728;4.160;2022-10-18T17:45:16;11.95;;;3.33;;
57635;SDS011;43465;50.728;4.160;2022-10-18T17:47:43;20.08;;;3.95;;
57635;SDS011;43465;50.728;4.160;2022-10-18T17:50:08;13.70;;;3.40;;
57635;SDS011;43465;50.728;4.160;2022-10-18T17:52:34;12.77;;;3.30;;
57635;SDS011;43465;50.728;4.160;2022-10-18T17:55:04;16.77;;;3.72;;
57635;SDS011;43465;50.728;4.160;2022-10-18T17:57:30;10.55;;;3.10;;
57635;SDS011;43465;50.728;4.160;2022-10-18T17:59:55;14.20;;;3.63;;
57635;SDS011;43465;50.728;4.160;2022-10-18T18:02:22;11.60;;;3.38;;
57635;SDS011;43465;50.728;4.160;2022-10-18T18:04:48;15.52;;;3.50;;
57635;SDS011;43465;50.728;4.160;2022-10-18T18:07:13;13.40;;;3.47;;
57635;SDS011;43465;50.728;4.160;2022-10-18T18:09:39;10.80;;;3.38;;
57635;SDS011;43465;50.728;4.160;2022-10-18T18:12:05;11.55;;;3.20;;
57635;SDS011;43465;50.728;4.160;2022-10-18T18:14:30;10.88;;;3.42;;